createdAt,value
2022-09-26T00:01:44.870Z,69.35
2022-09-26T00:04:23.740Z,69.60
2022-09-26T00:06:53.355Z,69.89
2022-09-26T00:09:20.386Z,70.02
2022-09-26T00:11:47.906Z,70.33
2022-09-26T00:14:20.283Z,70.85
2022-09-26T00:16:47.488Z,70.89
2022-09-26T00:19:15.462Z,71.10
2022-09-26T00:21:43.293Z,71.48
2022-09-26T00:24:10.414Z,71.70
2022-09-26T00:26:37.651Z,72.20
2022-09-26T00:29:07.285Z,72.63
2022-09-26T00:31:35.792Z,72.85
2022-09-26T00:34:05.174Z,73.13
2022-09-26T00:36:38.112Z,73.48
2022-09-26T00:39:06.678Z,73.88
2022-09-26T00:41:33.855Z,74.38
2022-09-26T00:44:01.013Z,74.59
2022-09-26T00:46:36.543Z,75.22
2022-09-26T00:49:22.733Z,75.79
2022-09-26T00:51:54.852Z,76.03
2022-09-26T00:54:21.870Z,76.40
2022-09-26T00:56:49.652Z,76.86
2022-09-26T00:59:22.380Z,76.96
2022-09-26T01:01:52.896Z,76.88
2022-09-26T01:04:20.021Z,76.82
2022-09-26T01:06:49.299Z,77.11
2022-09-26T01:09:16.550Z,77.09
2022-09-26T01:11:45.476Z,77.17
2022-09-26T01:14:12.654Z,76.82
2022-09-26T01:16:41.272Z,76.86
2022-09-26T01:19:34.804Z,76.82
2022-09-26T01:22:21.199Z,76.82
2022-09-26T01:24:50.664Z,77.02
2022-09-26T01:27:34.518Z,77.00
2022-09-26T01:30:01.772Z,77.22
2022-09-26T01:32:50.341Z,77.40
2022-09-26T01:35:29.612Z,77.65
2022-09-26T01:38:03.192Z,77.97
2022-09-26T01:40:37.754Z,78.35
2022-09-26T01:43:23.311Z,78.54
2022-09-26T01:45:52.194Z,78.52
2022-09-26T01:48:20.569Z,78.88
2022-09-26T01:50:51.794Z,79.22
2022-09-26T01:53:22.979Z,79.48
2022-09-26T01:55:55.007Z,79.86
2022-09-26T01:58:29.091Z,80.17
2022-09-26T02:00:58.440Z,80.18
2022-09-26T02:03:27.942Z,80.35
2022-09-26T02:05:56.402Z,80.71
2022-09-26T02:08:44.529Z,81.19
2022-09-26T02:11:18.635Z,81.61
2022-09-26T02:13:55.591Z,81.88
2022-09-26T02:16:26.961Z,82.23
2022-09-26T02:18:58.269Z,82.19
2022-09-26T02:21:26.016Z,82.55
2022-09-26T02:23:53.334Z,82.94
2022-09-26T02:26:20.384Z,83.20
2022-09-26T02:28:47.437Z,83.31
2022-09-26T02:31:16.592Z,83.70
2022-09-26T02:33:44.125Z,84.01
2022-09-26T02:36:11.565Z,84.08
2022-09-26T02:38:38.671Z,84.07
2022-09-26T02:41:29.656Z,84.28
2022-09-26T02:44:16.924Z,84.25
2022-09-26T02:47:02.590Z,84.46
2022-09-26T02:49:55.876Z,84.98
2022-09-26T02:52:41.746Z,85.44
2022-09-26T02:55:11.554Z,86.50
2022-09-26T02:57:47.653Z,87.07
2022-09-26T03:00:17.625Z,87.78
2022-09-26T03:02:50.921Z,88.32
2022-09-26T03:05:18.642Z,88.75
2022-09-26T03:07:50.618Z,89.11
2022-09-26T03:10:17.860Z,89.40
2022-09-26T03:12:45.006Z,89.57
2022-09-26T03:15:12.678Z,89.60
2022-09-26T03:17:41.999Z,89.87
2022-09-26T03:20:13.345Z,90.50
2022-09-26T03:22:40.788Z,90.98
2022-09-26T03:25:09.160Z,91.03
2022-09-26T03:27:36.448Z,91.10
2022-09-26T03:30:05.113Z,91.38
2022-09-26T03:32:32.428Z,91.54
2022-09-26T03:34:59.500Z,91.77
2022-09-26T03:37:26.496Z,91.87
2022-09-26T03:39:53.524Z,91.77
2022-09-26T03:42:20.641Z,91.48
2022-09-26T03:44:48.214Z,91.64
2022-09-26T03:47:15.304Z,91.22
2022-09-26T03:49:42.551Z,91.22
2022-09-26T03:52:10.709Z,90.78
2022-09-26T03:54:37.874Z,91.77
2022-09-26T03:57:05.071Z,93.11
2022-09-26T03:59:32.249Z,94.68
2022-09-26T04:01:59.366Z,95.13
2022-09-26T04:04:26.845Z,95.52
2022-09-26T04:06:53.889Z,95.55
2022-09-26T04:09:21.141Z,95.73
2022-09-26T04:11:48.400Z,95.87
2022-09-26T04:14:15.478Z,96.37
2022-09-26T04:16:42.572Z,96.55
2022-09-26T04:19:09.997Z,96.88
2022-09-26T04:21:37.051Z,97.51
2022-09-26T04:24:04.141Z,97.68
2022-09-26T04:26:31.533Z,97.76
2022-09-26T04:28:59.123Z,98.20
2022-09-26T04:31:30.702Z,98.67
2022-09-26T04:33:57.925Z,98.97
2022-09-26T04:36:24.994Z,98.79
2022-09-26T04:38:52.172Z,99.03
2022-09-26T04:41:19.888Z,99.28
2022-09-26T04:43:47.086Z,99.23
2022-09-26T04:46:20.614Z,99.49
2022-09-26T04:48:49.376Z,99.33
2022-09-26T04:51:16.959Z,99.25
2022-09-26T04:53:44.041Z,98.52
2022-09-26T04:56:11.793Z,97.99
2022-09-26T04:58:39.023Z,97.35
2022-09-26T05:01:07.490Z,96.60
2022-09-26T05:03:37.108Z,96.11
2022-09-26T05:06:09.027Z,95.00
2022-09-26T05:08:36.585Z,94.77
2022-09-26T05:11:03.942Z,94.80
2022-09-26T05:13:31.326Z,94.51
2022-09-26T05:16:01.764Z,93.88
2022-09-26T05:18:29.131Z,94.09
2022-09-26T05:20:56.500Z,94.10
2022-09-26T05:23:45.030Z,94.06
2022-09-26T05:26:20.696Z,94.23
2022-09-26T05:28:55.313Z,93.67
2022-09-26T05:31:24.861Z,93.19
2022-09-26T05:33:52.313Z,92.68
2022-09-26T05:36:19.932Z,93.19
2022-09-26T05:38:47.232Z,93.38
2022-09-26T05:41:14.333Z,93.54
2022-09-26T05:43:41.452Z,93.45
2022-09-26T05:46:09.053Z,93.74
2022-09-26T05:48:36.615Z,94.08
2022-09-26T05:51:10.967Z,94.04
2022-09-26T05:53:38.440Z,94.51
2022-09-26T05:56:06.472Z,94.38
2022-09-26T05:58:34.368Z,93.54
2022-09-26T06:01:06.028Z,93.31
2022-09-26T06:03:34.711Z,93.50
2022-09-26T06:06:08.553Z,93.42
2022-09-26T06:08:36.951Z,94.18
2022-09-26T06:11:07.812Z,93.93
2022-09-26T06:13:35.002Z,93.67
2022-09-26T06:16:06.238Z,92.81
2022-09-26T06:18:33.910Z,92.73
2022-09-26T06:21:02.334Z,93.13
2022-09-26T06:23:29.761Z,93.56
2022-09-26T06:25:56.810Z,93.86
2022-09-26T06:28:24.009Z,94.13
2022-09-26T06:30:51.011Z,94.46
2022-09-26T06:33:18.244Z,94.64
2022-09-26T06:35:46.184Z,94.62
2022-09-26T06:38:13.364Z,94.90
2022-09-26T06:40:40.730Z,94.85
2022-09-26T06:43:07.849Z,94.79
2022-09-26T06:45:36.215Z,94.63
2022-09-26T06:48:04.065Z,95.35
2022-09-26T06:50:31.200Z,96.42
2022-09-26T06:53:04.712Z,96.94
2022-09-26T06:55:38.926Z,96.50
2022-09-26T06:58:05.992Z,96.57
2022-09-26T07:00:35.478Z,96.88
2022-09-26T07:03:02.660Z,96.60
2022-09-26T07:05:30.001Z,96.57
2022-09-26T07:07:57.755Z,96.28
2022-09-26T07:10:24.981Z,95.13
2022-09-26T07:12:53.211Z,93.63
2022-09-26T07:15:20.293Z,93.55
2022-09-26T07:17:51.197Z,93.06
2022-09-26T07:20:18.862Z,91.74
2022-09-26T07:22:46.576Z,91.76
2022-09-26T07:25:15.234Z,91.83
2022-09-26T07:27:42.815Z,91.41
2022-09-26T07:30:11.058Z,91.62
2022-09-26T07:32:39.281Z,91.21
2022-09-26T07:35:07.120Z,91.16
2022-09-26T07:37:34.752Z,90.89
2022-09-26T07:40:02.247Z,90.41
2022-09-26T07:42:29.668Z,89.99
2022-09-26T07:48:02.937Z,85.68
2022-09-26T07:50:33.729Z,83.97
2022-09-26T07:53:00.780Z,84.52
2022-09-26T07:55:28.059Z,82.22
2022-09-26T07:57:55.884Z,81.28
2022-09-26T08:00:23.035Z,81.03
2022-09-26T08:02:50.849Z,78.63
2022-09-26T08:05:20.224Z,76.27
2022-09-26T08:07:47.734Z,73.72
2022-09-26T08:10:20.156Z,72.53
2022-09-26T08:12:47.581Z,71.34
2022-09-26T08:15:15.536Z,66.25
2022-09-26T08:17:43.449Z,60.48
2022-09-26T08:20:10.970Z,58.71
2022-09-26T08:22:38.056Z,56.72
2022-09-26T08:25:06.901Z,52.82
2022-09-26T08:27:34.287Z,52.82
2022-09-26T08:30:04.425Z,51.62
2022-09-26T08:32:32.403Z,45.77
2022-09-26T08:35:00.243Z,43.02
2022-09-26T08:37:28.060Z,43.52
2022-09-26T08:39:55.103Z,45.24
2022-09-26T08:42:24.074Z,45.10
2022-09-26T08:45:30.980Z,46.38
2022-09-26T08:48:03.997Z,45.81
2022-09-26T08:50:37.587Z,48.54
2022-09-26T08:53:10.483Z,50.26
2022-09-26T08:55:41.290Z,55.91
2022-09-26T08:58:15.358Z,56.29
2022-09-26T09:00:42.506Z,53.92
2022-09-26T09:03:15.809Z,50.76
2022-09-26T09:05:48.886Z,56.83
2022-09-26T09:08:21.870Z,60.42
2022-09-26T09:10:55.109Z,61.74
2022-09-26T09:13:31.634Z,59.17
2022-09-26T09:16:04.932Z,64.90
2022-09-26T09:18:50.927Z,66.65
2022-09-26T09:21:17.947Z,67.60
2022-09-26T09:23:48.030Z,67.62
2022-09-26T09:29:19.144Z,66.60
2022-09-26T09:31:46.492Z,65.45
2022-09-26T09:34:30.065Z,65.99
2022-09-26T09:36:57.849Z,66.26
2022-09-26T09:39:29.239Z,64.94
2022-09-26T09:41:57.239Z,54.52
2022-09-26T09:44:24.688Z,54.95
2022-09-26T09:46:51.867Z,60.12
2022-09-26T09:49:22.958Z,63.09
2022-09-26T09:51:51.411Z,60.67
2022-09-26T09:54:22.497Z,50.77
2022-09-26T09:56:52.042Z,44.25
2022-09-26T09:59:22.489Z,38.13
2022-09-26T10:01:51.039Z,37.99
2022-09-26T10:04:30.329Z,41.18
2022-09-26T10:06:57.539Z,46.30
2022-09-26T10:09:39.079Z,50.86
2022-09-26T10:12:10.888Z,58.76
2022-09-26T10:14:41.636Z,57.87
2022-09-26T10:17:08.921Z,52.22
2022-09-26T10:19:37.578Z,53.81
2022-09-26T10:22:09.476Z,54.90
2022-09-26T10:24:43.456Z,55.31
2022-09-26T10:27:14.476Z,49.72
2022-09-26T10:29:41.551Z,45.45
2022-09-26T10:32:10.142Z,40.14
2022-09-26T10:34:38.398Z,36.71
2022-09-26T10:37:25.784Z,38.41
2022-09-26T10:40:12.141Z,38.02
2022-09-26T10:42:40.352Z,42.85
2022-09-26T10:45:16.124Z,40.76
2022-09-26T10:47:46.250Z,41.28
2022-09-26T10:50:17.318Z,40.93
2022-09-26T10:52:45.824Z,43.21
2022-09-26T10:55:26.273Z,43.99
2022-09-26T10:57:54.053Z,42.78
2022-09-26T11:00:33.385Z,43.68
2022-09-26T11:03:00.419Z,45.25
2022-09-26T11:05:46.192Z,39.18
2022-09-26T11:08:14.169Z,40.65
2022-09-26T11:10:42.203Z,44.16
2022-09-26T11:13:30.062Z,48.27
2022-09-26T11:16:03.969Z,51.62
2022-09-26T11:18:41.963Z,55.00
2022-09-26T11:21:28.812Z,53.10
2022-09-26T11:23:56.738Z,51.57
2022-09-26T11:26:27.874Z,49.08
2022-09-26T11:29:06.043Z,43.32
2022-09-26T11:31:36.835Z,38.38
2022-09-26T11:34:08.279Z,37.85
2022-09-26T11:36:39.645Z,39.54
2022-09-26T11:39:13.152Z,40.12
2022-09-26T11:41:52.328Z,42.63
2022-09-26T11:44:22.007Z,45.15
2022-09-26T11:46:54.406Z,42.05
2022-09-26T11:49:40.367Z,40.01
2022-09-26T11:52:26.093Z,41.67
2022-09-26T11:55:11.121Z,44.59
2022-09-26T11:57:57.486Z,43.51
2022-09-26T12:00:26.536Z,43.21
2022-09-26T12:03:14.038Z,42.86
2022-09-26T12:06:01.986Z,40.24
2022-09-26T12:08:47.611Z,38.17
2022-09-26T12:11:19.302Z,35.60
2022-09-26T12:13:52.458Z,34.69
2022-09-26T12:16:23.226Z,34.34
2022-09-26T12:19:14.101Z,34.97
2022-09-26T12:22:08.253Z,35.48
2022-09-26T12:24:45.291Z,34.85
2022-09-26T12:27:18.096Z,34.59
2022-09-26T12:30:03.650Z,33.60
2022-09-26T12:32:33.562Z,35.10
2022-09-26T12:35:07.233Z,35.66
2022-09-26T12:37:41.058Z,35.41
2022-09-26T12:40:14.617Z,34.86
2022-09-26T12:42:51.026Z,34.39
2022-09-26T12:45:26.623Z,34.94
2022-09-26T12:47:53.684Z,35.68
2022-09-26T12:50:39.639Z,35.42
2022-09-26T12:53:13.607Z,35.91
2022-09-26T12:55:59.256Z,36.63
2022-09-26T12:58:43.433Z,37.22
2022-09-26T13:01:19.819Z,37.08
2022-09-26T13:03:55.025Z,36.65
2022-09-26T13:06:34.309Z,36.05
2022-09-26T13:09:08.084Z,37.24
2022-09-26T13:11:56.874Z,36.40
2022-09-26T13:14:27.270Z,36.67
2022-09-26T13:16:59.294Z,35.76
2022-09-26T13:19:29.586Z,36.48
2022-09-26T13:22:02.250Z,37.37
2022-09-26T13:24:34.625Z,37.16
2022-09-26T13:27:09.386Z,37.32
2022-09-26T13:29:37.481Z,37.67
2022-09-26T13:32:12.543Z,38.57
2022-09-26T13:35:02.864Z,38.64
2022-09-26T13:37:36.059Z,39.35
2022-09-26T13:40:23.431Z,39.99
2022-09-26T13:43:10.727Z,40.22
2022-09-26T13:45:44.214Z,40.24
2022-09-26T13:48:33.181Z,40.21
2022-09-26T13:51:06.460Z,39.45
2022-09-26T13:53:45.794Z,39.57
2022-09-26T13:56:31.375Z,39.83
2022-09-26T13:59:09.689Z,40.11
2022-09-26T14:01:37.479Z,39.07
2022-09-26T14:04:17.841Z,37.99
2022-09-26T14:07:26.068Z,36.69
2022-09-26T14:09:55.736Z,35.10
2022-09-26T14:12:42.494Z,35.01
2022-09-26T14:15:24.227Z,34.83
2022-09-26T14:18:02.497Z,33.79
2022-09-26T14:20:31.650Z,34.51
2022-09-26T14:22:58.734Z,34.47
2022-09-26T14:25:44.709Z,34.80
2022-09-26T14:28:35.023Z,35.31
2022-09-26T14:31:22.183Z,35.54
2022-09-26T14:33:49.696Z,35.77
2022-09-26T14:36:26.859Z,36.40
2022-09-26T14:38:54.414Z,39.00
2022-09-26T14:41:21.537Z,40.54
2022-09-26T14:43:48.649Z,41.38
2022-09-26T14:46:16.922Z,42.83
2022-09-26T14:48:44.113Z,44.13
2022-09-26T14:51:11.604Z,45.28
2022-09-26T14:53:42.748Z,46.58
2022-09-26T14:56:26.145Z,47.86
2022-09-26T14:58:53.679Z,48.17
2022-09-26T15:01:38.978Z,48.94
2022-09-26T15:04:16.837Z,50.34
2022-09-26T15:06:44.764Z,50.02
2022-09-26T15:09:13.013Z,50.96
2022-09-26T15:11:48.049Z,51.12
2022-09-26T15:14:26.407Z,52.31
2022-09-26T15:16:53.881Z,53.84
2022-09-26T15:19:22.633Z,53.87
2022-09-26T15:21:57.201Z,54.22
2022-09-26T15:24:26.445Z,55.16
2022-09-26T15:26:55.419Z,55.54
2022-09-26T15:29:22.840Z,56.65
2022-09-26T15:31:51.184Z,57.34
2022-09-26T15:34:22.709Z,56.74
2022-09-26T15:36:54.549Z,57.47
2022-09-26T15:39:30.859Z,57.48
2022-09-26T15:42:16.652Z,58.06
2022-09-26T15:44:46.582Z,58.29
2022-09-26T15:47:25.162Z,58.95
2022-09-26T15:50:12.084Z,59.66
2022-09-26T15:53:00.271Z,60.71
2022-09-26T15:55:47.612Z,61.98
2022-09-26T15:58:15.862Z,62.13
2022-09-26T16:00:43.596Z,63.31
2022-09-26T16:03:25.879Z,63.84
2022-09-26T16:05:53.425Z,64.37
2022-09-26T16:08:21.077Z,64.97
2022-09-26T16:10:52.491Z,65.56
2022-09-26T16:13:23.913Z,65.80
2022-09-26T16:16:13.195Z,66.09
2022-09-26T16:18:44.709Z,66.26
2022-09-26T16:21:19.241Z,66.78
2022-09-26T16:23:47.401Z,66.92
2022-09-26T16:26:31.563Z,67.35
2022-09-26T16:29:02.661Z,66.98
2022-09-26T16:31:34.504Z,67.27
2022-09-26T16:34:02.598Z,68.21
2022-09-26T16:36:30.302Z,68.40
2022-09-26T16:38:58.046Z,68.40
2022-09-26T16:44:27.459Z,68.55
2022-09-26T16:46:56.238Z,68.72
2022-09-26T16:49:29.342Z,68.81
2022-09-26T16:52:29.708Z,69.41
2022-09-26T16:54:57.440Z,69.61
2022-09-26T16:57:25.654Z,69.54
2022-09-26T16:59:52.967Z,70.16
2022-09-26T17:02:20.367Z,70.17
2022-09-26T17:04:48.535Z,69.78
2022-09-26T17:07:15.802Z,69.61
2022-09-26T17:09:43.991Z,69.45
2022-09-26T17:12:17.365Z,69.68
2022-09-26T17:14:44.761Z,69.76
2022-09-26T17:17:13.525Z,69.71
2022-09-26T17:19:41.203Z,69.46
2022-09-26T17:22:15.501Z,69.64
2022-09-26T17:24:42.934Z,70.01
2022-09-26T17:27:14.283Z,70.18
2022-09-26T17:29:43.239Z,69.52
2022-09-26T17:32:14.929Z,70.18
2022-09-26T17:34:41.985Z,69.78
2022-09-26T17:37:11.031Z,69.30
2022-09-26T17:39:38.340Z,69.50
2022-09-26T17:42:05.761Z,69.43
2022-09-26T17:44:34.155Z,69.37
2022-09-26T17:47:01.545Z,69.53
2022-09-26T17:49:30.524Z,69.77
2022-09-26T17:51:58.474Z,69.87
2022-09-26T17:54:29.551Z,69.89
2022-09-26T17:56:56.761Z,70.06
2022-09-26T17:59:24.361Z,70.51
2022-09-26T18:01:53.012Z,70.82
2022-09-26T18:04:21.164Z,70.70
2022-09-26T18:06:48.201Z,70.98
2022-09-26T18:09:16.813Z,70.98
2022-09-26T18:11:44.509Z,71.31
2022-09-26T18:14:15.523Z,71.31
2022-09-26T18:16:42.645Z,71.62
2022-09-26T18:19:10.784Z,72.09
2022-09-26T18:21:40.108Z,72.20
2022-09-26T18:24:18.595Z,72.46
2022-09-26T18:26:50.871Z,72.90
2022-09-26T18:29:23.142Z,73.19
2022-09-26T18:31:50.186Z,73.50
2022-09-26T18:34:19.877Z,73.92
2022-09-26T18:36:49.976Z,74.07
2022-09-26T18:39:17.213Z,74.18
2022-09-26T18:41:45.255Z,75.08
2022-09-26T18:44:16.971Z,75.10
2022-09-26T18:46:46.222Z,75.88
2022-09-26T18:49:14.408Z,76.08
2022-09-26T18:51:41.465Z,76.60
2022-09-26T18:54:13.438Z,77.26
2022-09-26T18:56:59.931Z,78.09
2022-09-26T18:59:29.192Z,78.87
2022-09-26T19:01:57.344Z,79.49
2022-09-26T19:04:26.185Z,80.71
2022-09-26T19:07:00.877Z,80.91
2022-09-26T19:09:28.680Z,81.68
2022-09-26T19:11:55.760Z,82.32
2022-09-26T19:14:32.089Z,82.41
2022-09-26T19:17:00.826Z,82.94
2022-09-26T19:19:32.575Z,83.25
2022-09-26T19:22:00.393Z,83.40
2022-09-26T19:24:31.129Z,84.16
2022-09-26T19:26:59.249Z,84.45
2022-09-26T19:29:35.625Z,84.73
2022-09-26T19:32:05.921Z,85.09
2022-09-26T19:34:33.149Z,85.07
2022-09-26T19:37:02.332Z,85.55
2022-09-26T19:39:29.893Z,85.69
2022-09-26T19:41:56.959Z,85.91
2022-09-26T19:44:24.422Z,85.99
2022-09-26T19:46:51.526Z,86.33
2022-09-26T19:49:18.857Z,86.55
2022-09-26T19:51:46.943Z,86.64
2022-09-26T19:54:17.098Z,86.75
2022-09-26T19:56:47.152Z,86.96
2022-09-26T19:59:17.483Z,87.14
2022-09-26T20:01:49.097Z,87.21
2022-09-26T20:04:20.546Z,87.46
2022-09-26T20:06:50.436Z,87.78
2022-09-26T20:09:19.601Z,88.00
2022-09-26T20:11:48.964Z,87.85
2022-09-26T20:14:26.680Z,87.88
2022-09-26T20:16:59.820Z,88.13
2022-09-26T20:19:33.790Z,88.34
2022-09-26T20:22:03.587Z,88.43
2022-09-26T20:24:32.811Z,88.78
2022-09-26T20:27:02.670Z,89.08
2022-09-26T20:29:51.538Z,89.15
2022-09-26T20:32:20.381Z,89.07
2022-09-26T20:34:50.200Z,89.49
2022-09-26T20:37:20.417Z,89.79
2022-09-26T20:39:48.983Z,89.71
2022-09-26T20:42:18.293Z,89.69
2022-09-26T20:44:47.635Z,90.08
2022-09-26T20:47:18.449Z,90.25
2022-09-26T20:49:49.191Z,90.59
2022-09-26T20:52:21.287Z,90.77
2022-09-26T20:54:49.033Z,90.88
2022-09-26T20:57:17.302Z,91.07
2022-09-26T20:59:44.467Z,91.44
2022-09-26T21:02:41.099Z,91.34
2022-09-26T21:05:17.896Z,91.83
2022-09-26T21:07:45.256Z,92.04
2022-09-26T21:10:22.548Z,91.78
2022-09-26T21:12:50.107Z,92.15
2022-09-26T21:15:17.168Z,92.37
2022-09-26T21:17:45.364Z,92.52
2022-09-26T21:20:21.780Z,92.68
2022-09-26T21:22:48.851Z,92.84
2022-09-26T21:25:16.670Z,93.00
2022-09-26T21:27:44.764Z,93.33
2022-09-26T21:30:15.565Z,93.44
2022-09-26T21:32:43.529Z,93.26
2022-09-26T21:35:11.003Z,93.37
2022-09-26T21:37:39.635Z,93.66
2022-09-26T21:40:07.197Z,93.86
2022-09-26T21:42:34.571Z,94.04
2022-09-26T21:45:02.277Z,94.30
2022-09-26T21:47:29.625Z,94.60
2022-09-26T21:49:57.407Z,94.77
2022-09-26T21:52:54.401Z,94.99
2022-09-26T21:55:22.597Z,95.13
2022-09-26T21:57:49.679Z,95.32
2022-09-26T22:00:16.829Z,95.37
2022-09-26T22:02:44.199Z,95.39
2022-09-26T22:05:11.866Z,95.73
2022-09-26T22:07:39.320Z,95.84
2022-09-26T22:10:06.787Z,96.31
2022-09-26T22:12:33.968Z,96.52
2022-09-26T22:15:01.433Z,96.77
2022-09-26T22:17:28.709Z,97.11
2022-09-26T22:19:56.468Z,97.21
2022-09-26T22:22:24.638Z,97.39
2022-09-26T22:24:51.834Z,97.32
2022-09-26T22:27:18.901Z,97.45
2022-09-26T22:29:45.962Z,97.67
2022-09-26T22:32:13.356Z,97.89
2022-09-26T22:34:40.868Z,97.98
2022-09-26T22:37:08.534Z,98.24
2022-09-26T22:39:35.732Z,98.67
2022-09-26T22:42:02.865Z,98.71
2022-09-26T22:44:30.183Z,98.83
2022-09-26T22:46:57.225Z,99.19
2022-09-26T22:49:24.307Z,99.33
2022-09-26T22:51:51.392Z,99.59
2022-09-26T22:54:18.548Z,99.53
2022-09-26T22:56:45.610Z,99.77
2022-09-26T22:59:12.777Z,99.92
2022-09-26T23:01:40.036Z,100.00
2022-09-26T23:04:07.152Z,100.00
2022-09-26T23:06:34.253Z,100.00
2022-09-26T23:09:01.858Z,100.00
2022-09-26T23:11:29.189Z,100.00
2022-09-26T23:13:56.308Z,100.00
2022-09-26T23:16:23.982Z,100.00
2022-09-26T23:18:51.117Z,100.00
2022-09-26T23:21:22.016Z,100.00
2022-09-26T23:23:49.945Z,100.00
2022-09-26T23:26:23.438Z,100.00
2022-09-26T23:28:51.007Z,100.00
2022-09-26T23:31:18.150Z,100.00
2022-09-26T23:33:45.763Z,100.00
2022-09-26T23:36:12.905Z,100.00
2022-09-26T23:38:39.978Z,100.00
2022-09-26T23:41:08.900Z,100.00
2022-09-26T23:43:36.255Z,100.00
2022-09-26T23:46:03.512Z,100.00
2022-09-26T23:48:30.747Z,100.00
2022-09-26T23:50:59.418Z,100.00
2022-09-26T23:53:26.481Z,100.00
2022-09-26T23:55:53.958Z,100.00
2022-09-26T23:58:21.158Z,100.00
